createdAt,value
2019-01-05T00:00:36.311Z,5.10
2019-01-05T00:03:06.515Z,5.10
2019-01-05T00:05:45.431Z,5.10
2019-01-05T00:08:27.398Z,5.10
2019-01-05T00:11:00.557Z,5.10
2019-01-05T00:13:33.782Z,5.10
2019-01-05T00:16:20.898Z,5.10
2019-01-05T00:19:07.359Z,5.20
2019-01-05T00:21:38.003Z,5.20
2019-01-05T00:24:11.259Z,5.20
2019-01-05T00:26:51.431Z,5.20
2019-01-05T00:29:33.676Z,5.20
2019-01-05T00:32:35.188Z,5.20
2019-01-05T00:35:25.897Z,5.20
2019-01-05T00:38:14.504Z,5.30
2019-01-05T00:41:02.191Z,5.30
2019-01-05T00:43:49.247Z,5.30
2019-01-05T00:46:28.867Z,5.30
2019-01-05T00:49:18.624Z,5.30
2019-01-05T00:51:51.908Z,5.30
2019-01-05T00:54:22.136Z,5.30
2019-01-05T00:57:09.204Z,5.30
2019-01-05T00:59:42.387Z,5.30
2019-01-05T01:02:21.656Z,5.30
2019-01-05T01:05:07.904Z,5.30
2019-01-05T01:07:54.163Z,5.30
2019-01-05T01:10:26.947Z,5.40
2019-01-05T01:13:00.091Z,5.40
2019-01-05T01:15:30.961Z,5.40
2019-01-05T01:18:01.228Z,5.40
2019-01-05T01:20:31.892Z,5.40
2019-01-05T01:23:02.232Z,5.40
2019-01-05T01:25:32.891Z,5.50
2019-01-05T01:28:19.835Z,5.50
2019-01-05T01:30:59.076Z,5.50
2019-01-05T01:33:29.344Z,5.50
2019-01-05T01:36:08.131Z,5.50
2019-01-05T01:38:47.123Z,5.50
2019-01-05T01:41:29.518Z,5.50
2019-01-05T01:44:16.355Z,5.60
2019-01-05T01:46:47.119Z,5.60
2019-01-05T01:49:24.087Z,5.60
2019-01-05T01:52:07.808Z,5.60
2019-01-05T01:54:53.087Z,5.60
2019-01-05T01:57:31.756Z,5.70
2019-01-05T02:00:21.137Z,5.60
2019-01-05T02:02:51.672Z,5.70
2019-01-05T02:05:40.235Z,5.70
2019-01-05T02:08:15.695Z,5.70
2019-01-05T02:10:49.933Z,5.70
2019-01-05T02:13:39.351Z,5.70
2019-01-05T02:16:18.340Z,5.70
2019-01-05T02:19:00.451Z,5.70
2019-01-05T02:21:38.943Z,5.80
2019-01-05T02:24:36.231Z,5.80
2019-01-05T02:27:18.140Z,5.80
2019-01-05T02:30:21.519Z,5.80
2019-01-05T02:33:06.456Z,5.90
2019-01-05T02:35:59.343Z,5.90
2019-01-05T02:38:51.985Z,5.90
2019-01-05T02:41:40.421Z,5.90
2019-01-05T02:44:16.558Z,5.90
2019-01-05T02:47:11.168Z,5.90
2019-01-05T02:50:05.619Z,5.90
2019-01-05T02:52:47.487Z,6.00
2019-01-05T02:56:03.092Z,6.00
2019-01-05T02:58:45.193Z,6.00
2019-01-05T03:01:54.795Z,6.00
2019-01-05T03:04:36.743Z,6.00
2019-01-05T03:07:15.805Z,6.00
2019-01-05T03:09:51.755Z,6.00
2019-01-05T03:12:43.031Z,6.00
2019-01-05T03:15:41.632Z,6.00
2019-01-05T03:18:20.614Z,6.00
2019-01-05T03:21:27.252Z,6.00
2019-01-05T03:24:30.547Z,6.10
2019-01-05T03:27:06.532Z,6.10
2019-01-05T03:30:05.340Z,6.00
2019-01-05T03:32:44.536Z,6.10
2019-01-05T03:35:35.704Z,6.10
2019-01-05T03:38:25.508Z,6.10
2019-01-05T03:41:09.893Z,6.10
2019-01-05T03:44:13.123Z,6.10
2019-01-05T03:47:24.159Z,6.10
2019-01-05T03:50:17.571Z,6.10
2019-01-05T03:53:10.347Z,6.10
2019-01-05T03:55:58.692Z,6.10
2019-01-05T03:58:57.466Z,6.10
2019-01-05T04:02:08.463Z,6.10
2019-01-05T04:05:05.509Z,6.10
2019-01-05T04:07:50.771Z,6.20
2019-01-05T04:10:57.880Z,6.20
2019-01-05T04:14:00.516Z,6.20
2019-01-05T04:16:52.981Z,6.20
2019-01-05T04:19:56.676Z,6.20
2019-01-05T04:22:44.990Z,6.20
2019-01-05T04:25:42.391Z,6.20
2019-01-05T04:28:50.475Z,6.20
2019-01-05T04:31:52.084Z,6.20
2019-01-05T04:34:54.868Z,6.20
2019-01-05T04:38:01.484Z,6.20
2019-01-05T04:40:58.724Z,6.20
2019-01-05T04:43:50.090Z,6.20
2019-01-05T04:46:50.547Z,6.20
2019-01-05T04:49:26.894Z,6.20
2019-01-05T04:52:22.434Z,6.30
2019-01-05T04:54:58.454Z,6.30
2019-01-05T04:57:58.731Z,6.30
2019-01-05T05:01:14.426Z,6.30
2019-01-05T05:04:19.396Z,6.30
2019-01-05T05:07:01.280Z,6.30
2019-01-05T05:10:06.543Z,6.30
2019-01-05T05:12:42.431Z,6.30
2019-01-05T05:15:46.124Z,6.30
2019-01-05T05:18:40.688Z,6.30
2019-01-05T05:21:45.924Z,6.30
2019-01-05T05:24:41.739Z,6.40
2019-01-05T05:27:45.313Z,6.40
2019-01-05T05:30:46.969Z,6.40
2019-01-05T05:33:37.179Z,6.40
2019-01-05T05:36:48.174Z,6.40
2019-01-05T05:39:40.794Z,6.40
2019-01-05T05:42:36.775Z,6.50
2019-01-05T05:45:18.871Z,6.40
2019-01-05T05:48:11.818Z,6.50
2019-01-05T05:51:32.051Z,6.50
2019-01-05T05:54:38.860Z,6.50
2019-01-05T05:57:37.899Z,6.50
2019-01-05T06:00:54.686Z,6.50
2019-01-05T06:04:02.856Z,6.50
2019-01-05T06:06:47.660Z,6.50
2019-01-05T06:09:47.107Z,6.50
2019-01-05T06:12:57.845Z,6.50
2019-01-05T06:15:56.786Z,6.50
2019-01-05T06:18:32.582Z,6.50
2019-01-05T06:21:57.550Z,6.50
2019-01-05T06:24:55.133Z,6.50
2019-01-05T06:27:55.287Z,6.50
2019-01-05T06:31:10.851Z,6.50
2019-01-05T06:33:55.812Z,6.50
2019-01-05T06:36:48.267Z,6.50
2019-01-05T06:39:49.475Z,6.50
2019-01-05T06:43:08.464Z,6.50
2019-01-05T06:46:12.928Z,6.50
2019-01-05T06:49:11.994Z,6.50
2019-01-05T06:52:21.500Z,6.50
2019-01-05T06:55:11.067Z,6.50
2019-01-05T06:57:52.852Z,6.50
2019-01-05T07:00:44.962Z,6.50
2019-01-05T07:03:43.791Z,6.50
2019-01-05T07:06:31.755Z,6.50
2019-01-05T07:09:39.420Z,6.50
2019-01-05T07:12:39.455Z,6.50
2019-01-05T07:15:54.399Z,6.50
2019-01-05T07:18:59.609Z,6.60
2019-01-05T07:22:00.143Z,6.50
2019-01-05T07:25:04.487Z,6.60
2019-01-05T07:28:00.028Z,6.60
2019-01-05T07:30:50.071Z,6.60
2019-01-05T07:33:41.148Z,6.60
2019-01-05T07:36:28.727Z,6.60
2019-01-05T07:39:29.479Z,6.60
2019-01-05T07:42:34.419Z,6.60
2019-01-05T07:45:32.435Z,6.60
2019-01-05T07:48:43.443Z,6.60
2019-01-05T07:51:52.941Z,6.60
2019-01-05T07:54:54.803Z,6.60
2019-01-05T07:57:36.219Z,6.60
2019-01-05T08:00:48.960Z,6.60
2019-01-05T08:03:53.640Z,6.70
2019-01-05T08:07:03.031Z,6.70
2019-01-05T08:10:10.919Z,6.70
2019-01-05T08:13:17.139Z,6.70
2019-01-05T08:16:31.199Z,6.70
2019-01-05T08:19:36.183Z,6.70
2019-01-05T08:22:39.461Z,6.70
2019-01-05T08:25:44.221Z,6.70
2019-01-05T08:28:37.156Z,6.70
2019-01-05T08:31:31.396Z,6.70
2019-01-05T08:34:27.211Z,6.70
2019-01-05T08:37:22.953Z,6.70
2019-01-05T08:40:46.088Z,6.70
2019-01-05T08:44:00.471Z,6.70
2019-01-05T08:47:13.915Z,6.80
2019-01-05T08:50:34.399Z,6.80
2019-01-05T08:53:13.268Z,6.80
2019-01-05T08:55:58.777Z,6.80
2019-01-05T08:59:11.019Z,6.80
2019-01-05T09:01:46.875Z,6.80
2019-01-05T09:04:25.884Z,6.80
2019-01-05T09:07:32.868Z,6.80
2019-01-05T09:10:43.760Z,6.80
2019-01-05T09:13:54.873Z,6.90
2019-01-05T09:16:59.712Z,6.90
2019-01-05T09:19:41.630Z,6.90
2019-01-05T09:22:51.103Z,6.90
2019-01-05T09:25:42.216Z,6.90
2019-01-05T09:28:55.180Z,6.90
2019-01-05T09:31:42.730Z,6.90
2019-01-05T09:34:32.170Z,6.90
2019-01-05T09:37:38.788Z,6.90
2019-01-05T09:40:57.380Z,6.90
2019-01-05T09:43:36.850Z,7.00
2019-01-05T09:46:32.585Z,7.00
2019-01-05T09:49:40.606Z,7.00
2019-01-05T09:52:47.058Z,7.00
2019-01-05T09:55:41.353Z,7.00
2019-01-05T09:58:32.684Z,7.00
2019-01-05T10:01:25.755Z,7.00
2019-01-05T10:04:48.938Z,7.00
2019-01-05T10:08:12.259Z,7.00
2019-01-05T10:10:57.056Z,7.00
2019-01-05T10:13:57.531Z,7.10
2019-01-05T10:16:50.271Z,7.10
2019-01-05T10:20:13.732Z,7.10
2019-01-05T10:23:21.876Z,7.10
2019-01-05T10:26:19.815Z,7.10
2019-01-05T10:29:45.976Z,7.10
2019-01-05T10:32:37.356Z,7.10
2019-01-05T10:35:45.628Z,7.20
2019-01-05T10:38:50.715Z,7.20
2019-01-05T10:41:48.959Z,7.20
2019-01-05T10:44:28.124Z,7.20
2019-01-05T10:47:04.259Z,7.30
2019-01-05T10:50:23.904Z,7.30
2019-01-05T10:53:36.528Z,7.30
2019-01-05T10:56:26.227Z,7.30
2019-01-05T10:59:14.655Z,7.30
2019-01-05T11:02:20.843Z,7.30
2019-01-05T11:05:31.596Z,7.30
2019-01-05T11:08:25.701Z,7.40
2019-01-05T11:11:40.220Z,7.40
2019-01-05T11:14:42.370Z,7.40
2019-01-05T11:17:49.077Z,7.40
2019-01-05T11:20:27.965Z,7.40
2019-01-05T11:23:49.796Z,7.50
2019-01-05T11:26:44.081Z,7.40
2019-01-05T11:29:22.847Z,7.50
2019-01-05T11:32:15.391Z,7.50
2019-01-05T11:35:06.691Z,7.50
2019-01-05T11:38:11.144Z,7.50
2019-01-05T11:41:02.295Z,7.50
2019-01-05T11:44:07.185Z,7.50
2019-01-05T11:46:48.895Z,7.50
2019-01-05T11:49:37.276Z,7.50
2019-01-05T11:52:32.460Z,7.50
2019-01-05T11:55:34.295Z,7.60
2019-01-05T11:58:36.679Z,7.60
2019-01-05T12:01:28.155Z,7.60
2019-01-05T12:04:07.063Z,7.60
2019-01-05T12:07:14.895Z,7.60
2019-01-05T12:10:24.108Z,7.60
2019-01-05T12:13:25.978Z,7.60
2019-01-05T12:16:20.143Z,7.60
2019-01-05T12:19:27.731Z,7.60
2019-01-05T12:22:15.520Z,7.60
2019-01-05T12:25:03.432Z,7.60
2019-01-05T12:27:54.104Z,7.60
2019-01-05T12:31:03.535Z,7.60
2019-01-05T12:34:14.403Z,7.60
2019-01-05T12:37:04.061Z,7.60
2019-01-05T12:40:05.823Z,7.60
2019-01-05T12:43:16.672Z,7.60
2019-01-05T12:46:27.707Z,7.60
2019-01-05T12:49:21.837Z,7.60
2019-01-05T12:52:16.312Z,7.60
2019-01-05T12:55:16.548Z,7.70
2019-01-05T12:58:34.991Z,7.70
2019-01-05T13:01:37.351Z,7.70
2019-01-05T13:04:31.419Z,7.70
2019-01-05T13:07:41.200Z,7.80
2019-01-05T13:10:25.352Z,7.80
2019-01-05T13:13:32.069Z,7.80
2019-01-05T13:16:20.224Z,7.80
2019-01-05T13:19:10.856Z,7.80
2019-01-05T13:22:09.528Z,7.80
2019-01-05T13:25:26.421Z,7.80
2019-01-05T13:28:36.201Z,7.80
2019-01-05T13:31:14.879Z,7.80
2019-01-05T13:34:12.912Z,7.80
2019-01-05T13:37:14.488Z,7.80
2019-01-05T13:40:37.795Z,7.80
2019-01-05T13:43:52.631Z,7.70
2019-01-05T13:47:01.005Z,7.70
2019-01-05T13:50:12.103Z,7.70
2019-01-05T13:52:45.381Z,7.70
2019-01-05T13:55:42.916Z,7.70
2019-01-05T13:58:18.825Z,7.70
2019-01-05T14:00:49.048Z,7.70
2019-01-05T14:03:19.253Z,7.60
2019-01-05T14:06:07.917Z,7.60
2019-01-05T14:08:43.637Z,7.60
2019-01-05T14:11:13.860Z,7.60
2019-01-05T14:14:00.537Z,7.60
2019-01-05T14:16:46.883Z,7.50
2019-01-05T14:19:33.386Z,7.50
2019-01-05T14:22:03.609Z,7.50
2019-01-05T14:24:50.004Z,7.50
2019-01-05T14:27:20.236Z,7.50
2019-01-05T14:29:53.161Z,7.50
2019-01-05T14:32:23.386Z,7.50
2019-01-05T14:34:55.992Z,7.50
2019-01-05T14:37:32.358Z,7.50
2019-01-05T14:40:02.562Z,7.50
2019-01-05T14:42:38.556Z,7.50
2019-01-05T14:45:09.792Z,7.40
2019-01-05T14:47:45.935Z,7.40
2019-01-05T14:50:25.235Z,7.40
2019-01-05T14:53:13.823Z,7.40
2019-01-05T14:55:44.048Z,7.40
2019-01-05T14:58:14.263Z,7.40
2019-01-05T15:00:49.945Z,7.40
2019-01-05T15:03:36.388Z,7.40
2019-01-05T15:06:09.550Z,7.40
2019-01-05T15:08:45.672Z,7.30
2019-01-05T15:11:27.935Z,7.30
2019-01-05T15:14:14.229Z,7.30
2019-01-05T15:17:01.164Z,7.30
2019-01-05T15:19:34.057Z,7.30
2019-01-05T15:22:06.699Z,7.30
2019-01-05T15:24:54.687Z,7.30
2019-01-05T15:27:24.914Z,7.30
2019-01-05T15:29:58.068Z,7.30
2019-01-05T15:32:43.008Z,7.30
2019-01-05T15:35:28.055Z,7.30
2019-01-05T15:38:00.840Z,7.30
2019-01-05T15:40:33.732Z,7.20
2019-01-05T15:43:16.012Z,7.20
2019-01-05T15:46:02.482Z,7.20
2019-01-05T15:48:32.711Z,7.20
2019-01-05T15:51:11.583Z,7.20
2019-01-05T15:53:57.180Z,7.20
2019-01-05T15:56:43.696Z,7.20
2019-01-05T15:59:25.716Z,7.20
2019-01-05T16:02:10.927Z,7.20
2019-01-05T16:04:46.899Z,7.20
2019-01-05T16:07:33.712Z,7.20
2019-01-05T16:10:03.912Z,7.20
2019-01-05T16:12:42.911Z,7.20
2019-01-05T16:15:22.158Z,7.20
2019-01-05T16:17:55.335Z,7.20
2019-01-05T16:20:25.545Z,7.20
2019-01-05T16:23:04.795Z,7.20
2019-01-05T16:25:40.876Z,7.20
2019-01-05T16:28:27.300Z,7.20
2019-01-05T16:30:57.518Z,7.20
2019-01-05T16:33:27.723Z,7.20
2019-01-05T16:36:03.899Z,7.20
2019-01-05T16:38:36.842Z,7.20
2019-01-05T16:41:23.438Z,7.20
2019-01-05T16:44:10.149Z,7.10
2019-01-05T16:46:52.552Z,7.10
2019-01-05T16:49:28.336Z,7.20
2019-01-05T16:52:04.799Z,7.10
2019-01-05T16:54:35.003Z,7.10
2019-01-05T16:57:11.027Z,7.10
2019-01-05T16:59:43.943Z,7.10
2019-01-05T17:02:16.757Z,7.10
2019-01-05T17:05:05.177Z,7.10
2019-01-05T17:07:44.512Z,7.10
2019-01-05T17:10:14.727Z,7.10
2019-01-05T17:12:53.815Z,7.10
2019-01-05T17:15:33.212Z,7.10
2019-01-05T17:18:19.524Z,7.10
2019-01-05T17:20:58.959Z,7.10
2019-01-05T17:23:38.452Z,7.10
2019-01-05T17:26:11.315Z,7.10
2019-01-05T17:28:58.092Z,7.10
2019-01-05T17:31:44.448Z,7.10
2019-01-05T17:34:26.599Z,7.10
2019-01-05T17:37:11.512Z,7.10
2019-01-05T17:39:47.602Z,7.10
2019-01-05T17:42:34.341Z,7.10
2019-01-05T17:45:16.594Z,7.10
2019-01-05T17:47:46.807Z,7.10
2019-01-05T17:50:35.333Z,7.10
2019-01-05T17:53:22.087Z,7.10
2019-01-05T17:55:52.280Z,7.10
2019-01-05T17:58:34.562Z,7.10
2019-01-05T18:01:21.263Z,7.10
2019-01-05T18:04:07.664Z,7.10
2019-01-05T18:06:54.413Z,7.10
2019-01-05T18:09:39.868Z,7.10
2019-01-05T18:12:15.912Z,7.10
2019-01-05T18:14:46.125Z,7.10
2019-01-05T18:17:19.313Z,7.10
2019-01-05T18:19:55.575Z,7.10
2019-01-05T18:22:31.364Z,7.00
2019-01-05T18:25:04.372Z,7.10
2019-01-05T18:27:40.495Z,7.00
2019-01-05T18:30:13.999Z,7.00
2019-01-05T18:33:00.352Z,7.00
2019-01-05T18:35:47.101Z,7.00
2019-01-05T18:38:23.603Z,7.00
2019-01-05T18:41:02.988Z,7.00
2019-01-05T18:43:49.824Z,7.00
2019-01-05T18:46:36.464Z,7.00
2019-01-05T18:49:21.936Z,7.00
2019-01-05T18:51:55.088Z,7.00
2019-01-05T18:54:41.917Z,7.00
2019-01-05T18:57:21.299Z,7.00
2019-01-05T19:00:09.731Z,7.00
2019-01-05T19:02:39.964Z,7.00
2019-01-05T19:05:21.708Z,7.00
2019-01-05T19:08:06.996Z,7.00
2019-01-05T19:10:48.849Z,7.00
2019-01-05T19:13:19.081Z,7.00
2019-01-05T19:16:05.498Z,7.00
2019-01-05T19:18:51.989Z,6.90
2019-01-05T19:21:28.133Z,6.90
2019-01-05T19:24:14.990Z,6.90
2019-01-05T19:26:54.059Z,6.90
2019-01-05T19:29:24.299Z,6.80
2019-01-05T19:32:11.124Z,6.80
2019-01-05T19:34:57.703Z,6.80
2019-01-05T19:37:36.867Z,6.80
2019-01-05T19:40:25.289Z,6.70
2019-01-05T19:43:12.030Z,6.70
2019-01-05T19:45:45.339Z,6.70
2019-01-05T19:48:27.804Z,6.70
2019-01-05T19:51:09.919Z,6.60
2019-01-05T19:54:00.859Z,6.60
2019-01-05T19:56:47.004Z,6.60
2019-01-05T19:59:32.137Z,6.60
2019-01-05T20:02:08.060Z,6.50
2019-01-05T20:04:56.696Z,6.50
2019-01-05T20:07:43.391Z,6.50
2019-01-05T20:10:19.601Z,6.40
2019-01-05T20:13:05.069Z,6.40
2019-01-05T20:15:53.290Z,6.40
2019-01-05T20:18:23.492Z,6.40
2019-01-05T20:20:53.716Z,6.30
2019-01-05T20:23:26.611Z,6.30
2019-01-05T20:26:02.965Z,6.30
2019-01-05T20:28:49.694Z,6.30
2019-01-05T20:31:28.976Z,6.20
2019-01-05T20:33:59.181Z,6.20
2019-01-05T20:36:45.784Z,6.20
2019-01-05T20:39:24.895Z,6.10
2019-01-05T20:42:07.401Z,6.10
2019-01-05T20:44:46.451Z,6.10
2019-01-05T20:47:31.879Z,6.10
2019-01-05T20:50:18.432Z,6.10
2019-01-05T20:53:05.029Z,6.10
2019-01-05T20:55:51.757Z,6.10
2019-01-05T20:58:30.962Z,6.00
2019-01-05T21:01:07.049Z,6.00
2019-01-05T21:03:43.090Z,6.00
2019-01-05T21:06:29.771Z,6.00
2019-01-05T21:08:59.972Z,6.00
2019-01-05T21:11:45.256Z,6.00
2019-01-05T21:14:27.475Z,6.00
2019-01-05T21:17:00.611Z,5.90
2019-01-05T21:19:47.408Z,5.90
2019-01-05T21:22:20.296Z,5.90
2019-01-05T21:25:05.566Z,5.90
2019-01-05T21:27:47.728Z,5.80
2019-01-05T21:30:23.950Z,5.80
2019-01-05T21:33:06.364Z,5.80
2019-01-05T21:35:39.752Z,5.70
2019-01-05T21:38:21.992Z,5.70
2019-01-05T21:40:54.907Z,5.70
2019-01-05T21:43:25.113Z,5.70
2019-01-05T21:46:11.640Z,5.70
2019-01-05T21:48:56.660Z,5.60
2019-01-05T21:51:26.886Z,5.60
2019-01-05T21:53:57.084Z,5.60
2019-01-05T21:56:39.617Z,5.50
2019-01-05T21:59:25.140Z,5.50
2019-01-05T22:02:04.399Z,5.50
2019-01-05T22:04:34.604Z,5.40
2019-01-05T22:07:20.158Z,5.40
2019-01-05T22:09:50.363Z,5.40
2019-01-05T22:12:35.600Z,5.40
2019-01-05T22:15:09.951Z,5.40
2019-01-05T22:17:40.160Z,5.40
2019-01-05T22:20:16.067Z,5.40
2019-01-05T22:22:46.267Z,5.40
2019-01-05T22:25:32.403Z,5.40
2019-01-05T22:28:19.116Z,5.30
2019-01-05T22:31:06.085Z,5.30
2019-01-05T22:33:36.275Z,5.30
2019-01-05T22:36:21.507Z,5.30
2019-01-05T22:38:54.448Z,5.30
2019-01-05T22:41:41.141Z,5.30
2019-01-05T22:44:20.356Z,5.30
2019-01-05T22:47:05.807Z,5.30
2019-01-05T22:49:43.484Z,5.30
2019-01-05T22:52:19.492Z,5.20
2019-01-05T22:55:05.891Z,5.20
2019-01-05T22:57:42.080Z,5.20
2019-01-05T23:00:24.921Z,5.20
2019-01-05T23:03:03.864Z,5.20
2019-01-05T23:05:36.871Z,5.20
2019-01-05T23:08:09.820Z,5.10
2019-01-05T23:10:49.079Z,5.10
2019-01-05T23:13:22.303Z,5.10
2019-01-05T23:15:55.735Z,5.10
2019-01-05T23:18:28.859Z,5.10
2019-01-05T23:21:14.091Z,5.10
2019-01-05T23:23:59.536Z,5.10
2019-01-05T23:26:41.971Z,5.00
2019-01-05T23:29:14.985Z,5.00
2019-01-05T23:31:53.038Z,5.00
2019-01-05T23:34:25.957Z,5.00
2019-01-05T23:37:11.414Z,5.00
2019-01-05T23:39:53.860Z,5.00
2019-01-05T23:42:26.867Z,5.00
2019-01-05T23:45:13.612Z,4.90
2019-01-05T23:47:52.627Z,4.90
2019-01-05T23:50:22.833Z,4.90
2019-01-05T23:52:53.059Z,4.90
2019-01-05T23:55:23.260Z,4.80
2019-01-05T23:57:56.163Z,4.80
